Time;durP1;ratioP1;P1;durP2;ratioP2;P2;SDS_P1;SDS_P2;PMS_P1;PMS_P2;Temp;Humidity;BMP_temperature;BMP_pressure;BME280_temperature;BME280_humidity;BME280_pressure;Samples;Min_cycle;Max_cycle;Signal;HPM_P1;HPM_P2
2022/10/30 00:00:20;;;;;;;20.65;10.20;;;14.30;99.90;;;;;;4996213;28;20145;-86
2022/10/30 00:02:47;;;;;;;19.60;10.02;;;14.30;99.90;;;;;;4976252;28;20042;-86
2022/10/30 00:05:13;;;;;;;21.13;9.45;;;14.30;99.90;;;;;;4990379;28;20072;-86
2022/10/30 00:07:39;;;;;;;20.45;10.35;;;14.30;99.90;;;;;;4971371;28;20118;-86
2022/10/30 00:10:05;;;;;;;18.85;9.63;;;14.30;99.90;;;;;;4976041;28;20132;-86
2022/10/30 00:12:31;;;;;;;21.02;9.52;;;14.30;99.90;;;;;;4976729;28;20034;-86
2022/10/30 00:14:56;;;;;;;19.85;9.93;;;14.20;99.90;;;;;;4972420;28;20042;-86
2022/10/30 00:17:22;;;;;;;23.23;9.77;;;14.30;99.90;;;;;;4990029;28;20049;-86
2022/10/30 00:19:48;;;;;;;21.48;9.73;;;14.20;99.90;;;;;;4970624;28;20046;-85
2022/10/30 00:22:13;;;;;;;18.73;9.48;;;14.20;99.90;;;;;;4977016;28;20494;-86
2022/10/30 00:24:39;;;;;;;20.02;9.68;;;14.20;99.90;;;;;;5006692;28;20041;-85
2022/10/30 00:27:05;;;;;;;21.45;10.63;;;14.20;99.90;;;;;;4983402;28;20042;-85
2022/10/30 00:29:31;;;;;;;24.50;10.30;;;14.20;99.90;;;;;;4987123;28;20038;-86
2022/10/30 00:31:57;;;;;;;21.90;9.85;;;14.30;99.90;;;;;;4987925;28;20061;-85
2022/10/30 00:34:22;;;;;;;22.60;9.55;;;14.20;99.90;;;;;;4964098;28;20169;-85
2022/10/30 00:36:48;;;;;;;21.00;9.80;;;14.20;99.90;;;;;;4970683;28;20530;-85
2022/10/30 00:39:14;;;;;;;22.13;10.07;;;14.20;99.90;;;;;;4996724;28;20111;-85
2022/10/30 00:41:40;;;;;;;19.42;10.13;;;14.20;99.90;;;;;;4986144;28;20045;-85
2022/10/30 00:44:46;;;;;;;20.77;9.98;;;14.30;99.90;;;;;;5008733;28;20052;-86
2022/10/30 00:47:29;;;;;;;24.33;9.80;;;14.20;99.90;;;;;;4990332;28;20046;-86
2022/10/30 00:50:04;;;;;;;;;;;14.20;99.90;;;;;;4989006;28;20073;-85
2022/10/30 00:52:38;;;;;;;22.42;9.60;;;14.20;99.90;;;;;;4982584;28;19922;-85
2022/10/30 00:55:12;;;;;;;19.52;9.30;;;14.20;99.90;;;;;;5008417;28;20235;-85
2022/10/30 00:57:39;;;;;;;20.10;10.13;;;14.20;99.90;;;;;;4992170;28;20037;-86
2022/10/30 01:00:08;;;;;;;21.00;10.45;;;14.20;99.90;;;;;;4979999;28;20503;-86
2022/10/30 01:02:34;;;;;;;21.30;10.02;;;14.20;99.90;;;;;;5021029;28;20061;-86
2022/10/30 01:05:01;;;;;;;21.33;10.10;;;14.20;99.90;;;;;;4974712;28;20050;-86
2022/10/30 01:07:26;;;;;;;23.42;9.77;;;14.20;99.90;;;;;;4992183;28;20057;-86
2022/10/30 01:09:52;;;;;;;23.55;9.73;;;14.10;99.90;;;;;;4973974;28;20076;-86
2022/10/30 01:12:18;;;;;;;23.48;9.82;;;14.10;99.90;;;;;;4974675;28;20041;-85
2022/10/30 01:14:50;;;;;;;20.90;10.43;;;14.10;99.90;;;;;;4964097;28;20120;-85
2022/10/30 01:17:49;;;;;;;19.10;9.43;;;14.10;99.90;;;;;;5015201;28;20136;-86
2022/10/30 01:20:21;;;;;;;20.23;9.57;;;14.10;99.90;;;;;;4991625;28;20451;-85
2022/10/30 01:23:15;;;;;;;20.60;9.00;;;14.10;99.90;;;;;;4993714;28;20057;-85
2022/10/30 01:26:08;;;;;;;19.73;9.68;;;14.10;99.90;;;;;;4989446;28;20773;-85
2022/10/30 01:29:01;;;;;;;18.55;9.95;;;14.10;99.90;;;;;;5001921;28;20117;-85
2022/10/30 01:31:46;;;;;;;23.58;9.75;;;14.10;99.90;;;;;;4992002;28;20459;-86
2022/10/30 01:34:34;;;;;;;18.10;9.85;;;14.00;99.90;;;;;;4992959;28;20029;-86
2022/10/30 01:37:05;;;;;;;18.48;9.05;;;14.00;99.90;;;;;;4991085;28;20061;-85
2022/10/30 01:39:39;;;;;;;22.95;10.57;;;14.00;99.90;;;;;;5009060;28;20062;-85
2022/10/30 01:42:10;;;;;;;18.80;9.45;;;14.00;99.90;;;;;;4995659;28;20176;-86
2022/10/30 01:44:37;;;;;;;21.60;10.05;;;14.00;99.90;;;;;;4989604;28;20504;-86
2022/10/30 01:47:12;;;;;;;19.77;9.50;;;14.00;99.90;;;;;;5004279;28;20491;-86
2022/10/30 01:49:53;;;;;;;21.10;10.02;;;14.00;99.90;;;;;;4992361;28;20128;-86
2022/10/30 01:52:38;;;;;;;19.60;9.98;;;14.00;99.90;;;;;;4987887;28;20046;-85
2022/10/30 01:55:08;;;;;;;17.85;9.15;;;13.90;99.90;;;;;;4990213;28;20438;-85
2022/10/30 01:57:39;;;;;;;22.13;10.25;;;14.00;99.90;;;;;;4992310;28;20033;-86
2022/10/30 02:00:11;;;;;;;18.42;9.23;;;13.90;99.90;;;;;;4994284;28;20046;-85
2022/10/30 02:02:37;;;;;;;19.70;9.50;;;13.90;99.90;;;;;;5025487;28;20479;-85
2022/10/30 02:05:05;;;;;;;19.38;9.25;;;13.90;99.90;;;;;;5009713;28;20125;-85
2022/10/30 02:07:30;;;;;;;19.85;9.98;;;13.90;99.90;;;;;;4991597;28;20122;-86
2022/10/30 02:09:56;;;;;;;20.38;8.75;;;13.90;99.90;;;;;;4988908;28;20562;-85
2022/10/30 02:12:22;;;;;;;21.77;9.65;;;13.80;99.90;;;;;;4993743;28;20064;-86
2022/10/30 02:14:55;;;;;;;23.27;9.63;;;13.80;99.90;;;;;;4995025;28;20069;-86
2022/10/30 02:17:21;;;;;;;20.90;9.45;;;13.90;99.90;;;;;;4991487;28;20038;-86
2022/10/30 02:19:47;;;;;;;19.38;9.60;;;13.80;99.90;;;;;;4993092;28;20045;-85
2022/10/30 02:22:13;;;;;;;21.25;9.80;;;13.80;99.90;;;;;;4977143;28;20122;-86
2022/10/30 02:24:39;;;;;;;22.52;9.63;;;13.80;99.90;;;;;;4994945;28;20046;-85
2022/10/30 02:27:04;;;;;;;19.85;9.10;;;13.90;99.90;;;;;;4991155;28;20072;-85
2022/10/30 02:29:30;;;;;;;22.38;10.27;;;13.80;99.90;;;;;;4993959;28;20045;-85
2022/10/30 02:31:56;;;;;;;24.55;10.13;;;13.80;99.90;;;;;;4991421;28;20488;-85
2022/10/30 02:34:21;;;;;;;19.88;9.60;;;13.80;99.90;;;;;;4978689;28;20035;-85
2022/10/30 02:36:48;;;;;;;22.30;9.45;;;13.80;99.90;;;;;;4999213;28;20478;-85
2022/10/30 02:39:13;;;;;;;18.25;9.27;;;13.80;99.90;;;;;;4992918;28;20049;-85
2022/10/30 02:41:39;;;;;;;19.15;9.52;;;13.80;99.90;;;;;;4968320;28;20431;-85
2022/10/30 02:44:05;;;;;;;20.35;10.10;;;13.80;99.90;;;;;;4996840;28;20041;-86
2022/10/30 02:46:31;;;;;;;18.45;9.77;;;13.80;99.90;;;;;;5010752;28;20042;-85
2022/10/30 02:48:57;;;;;;;18.05;9.55;;;13.80;99.90;;;;;;5009487;28;20042;-85
2022/10/30 02:51:23;;;;;;;19.30;9.32;;;13.20;99.90;;;;;;4994213;28;20238;-85
2022/10/30 02:53:49;;;;;;;19.40;9.65;;;13.80;99.90;;;;;;5009934;28;20111;-85
2022/10/30 02:56:15;;;;;;;24.05;9.98;;;14.00;99.90;;;;;;4971173;28;20037;-85
2022/10/30 02:58:41;;;;;;;25.85;10.18;;;13.80;99.90;;;;;;5002979;28;20042;-85
2022/10/30 03:01:10;;;;;;;21.35;9.82;;;13.80;99.90;;;;;;4997536;28;20115;-85
2022/10/30 03:03:36;;;;;;;20.67;9.80;;;13.80;99.90;;;;;;5003677;28;20034;-85
2022/10/30 03:06:07;;;;;;;18.90;9.35;;;13.80;99.90;;;;;;4972273;28;20116;-85
2022/10/30 03:08:34;;;;;;;22.55;9.80;;;13.80;99.90;;;;;;5004325;28;20518;-85
2022/10/30 03:11:11;;;;;;;22.50;9.80;;;13.80;99.90;;;;;;4978228;28;20046;-86
2022/10/30 03:13:39;;;;;;;24.02;9.70;;;13.90;99.90;;;;;;4993008;28;20042;-85
2022/10/30 03:16:14;;;;;;;21.25;9.77;;;13.80;99.90;;;;;;4992460;28;20046;-85
2022/10/30 03:18:40;;;;;;;18.95;9.65;;;13.80;99.90;;;;;;4989106;28;20052;-85
2022/10/30 03:21:08;;;;;;;16.90;8.82;;;13.80;99.90;;;;;;4988430;28;20049;-85
2022/10/30 03:23:34;;;;;;;19.63;9.32;;;13.80;99.90;;;;;;4988450;28;20042;-85
2022/10/30 03:26:00;;;;;;;20.25;9.18;;;13.80;99.90;;;;;;4972290;28;20439;-85
2022/10/30 03:28:28;;;;;;;20.73;9.40;;;13.80;99.90;;;;;;4971148;28;20092;-85
2022/10/30 03:31:02;;;;;;;19.42;9.25;;;13.90;99.90;;;;;;4993605;28;20038;-85
2022/10/30 03:33:28;;;;;;;17.77;9.43;;;13.90;99.90;;;;;;4993425;28;20522;-85
2022/10/30 03:35:54;;;;;;;21.77;9.63;;;13.80;99.90;;;;;;5009868;28;20112;-85
2022/10/30 03:38:20;;;;;;;21.92;9.13;;;13.90;99.90;;;;;;5006634;28;20042;-85
2022/10/30 03:40:45;;;;;;;17.90;8.95;;;13.80;99.90;;;;;;4972626;28;20533;-85
2022/10/30 03:43:11;;;;;;;19.63;9.55;;;13.80;99.90;;;;;;4997135;28;20045;-85
2022/10/30 03:45:37;;;;;;;19.15;9.10;;;13.80;99.90;;;;;;4973519;28;20104;-85
2022/10/30 03:48:04;;;;;;;20.58;9.20;;;13.80;99.90;;;;;;4968260;28;20125;-86
2022/10/30 03:50:30;;;;;;;22.65;9.00;;;13.80;99.90;;;;;;4992649;28;20042;-85
2022/10/30 03:52:57;;;;;;;20.25;9.40;;;13.80;99.90;;;;;;4974048;28;20061;-85
2022/10/30 03:55:24;;;;;;;18.27;8.70;;;13.80;99.90;;;;;;4999781;28;20382;-85
2022/10/30 03:57:50;;;;;;;20.23;10.02;;;13.80;99.90;;;;;;4997202;28;20046;-86
2022/10/30 04:00:16;;;;;;;20.20;9.77;;;13.70;99.90;;;;;;4995931;28;20048;-85
2022/10/30 04:02:50;;;;;;;19.10;9.35;;;13.80;99.90;;;;;;4970942;28;20042;-85
2022/10/30 04:05:17;;;;;;;18.90;9.15;;;13.70;99.90;;;;;;4980743;28;20044;-85
2022/10/30 04:07:43;;;;;;;17.27;9.38;;;13.70;99.90;;;;;;5008372;28;20044;-85
2022/10/30 04:10:10;;;;;;;18.73;9.25;;;13.70;99.90;;;;;;4974354;28;20042;-85
2022/10/30 04:12:36;;;;;;;20.63;9.32;;;13.70;99.90;;;;;;4991577;28;20042;-85
2022/10/30 04:15:02;;;;;;;19.95;9.88;;;13.70;99.90;;;;;;4983247;28;20048;-85
2022/10/30 04:17:28;;;;;;;23.17;9.73;;;13.60;99.90;;;;;;5010516;28;20037;-86
2022/10/30 04:19:54;;;;;;;18.83;9.07;;;13.70;99.90;;;;;;4995645;28;20119;-85
2022/10/30 04:22:19;;;;;;;19.45;9.00;;;13.70;99.90;;;;;;5012194;28;20107;-85
2022/10/30 04:24:47;;;;;;;23.08;10.00;;;13.60;99.90;;;;;;4977247;28;20096;-85
2022/10/30 04:27:14;;;;;;;22.77;10.40;;;13.70;99.90;;;;;;4969259;28;20049;-85
2022/10/30 04:29:41;;;;;;;21.38;10.20;;;13.70;99.90;;;;;;4961855;28;20041;-85
2022/10/30 04:32:07;;;;;;;21.77;10.63;;;13.70;99.90;;;;;;4990623;28;20038;-85
2022/10/30 04:34:33;;;;;;;18.95;10.52;;;13.60;99.90;;;;;;4979692;28;20046;-85
2022/10/30 04:36:58;;;;;;;18.13;9.88;;;13.70;99.90;;;;;;4976253;28;20182;-85
2022/10/30 04:39:24;;;;;;;22.40;10.13;;;13.70;99.90;;;;;;4974070;28;20057;-86
2022/10/30 04:41:50;;;;;;;19.77;9.68;;;13.70;99.90;;;;;;4989299;28;20042;-85
2022/10/30 04:44:15;;;;;;;21.85;9.93;;;13.60;99.90;;;;;;4992474;28;20135;-85
2022/10/30 04:46:41;;;;;;;19.63;9.73;;;13.60;99.90;;;;;;4956539;28;20049;-85
2022/10/30 04:49:07;;;;;;;21.77;10.00;;;13.60;99.90;;;;;;4973164;28;20034;-85
2022/10/30 04:51:32;;;;;;;18.52;9.98;;;13.60;99.90;;;;;;4973659;28;20216;-85
2022/10/30 04:53:58;;;;;;;23.67;10.30;;;13.60;99.90;;;;;;4975658;28;20109;-85
2022/10/30 04:56:24;;;;;;;21.40;9.48;;;13.60;99.90;;;;;;4974655;28;20038;-85
2022/10/30 04:58:50;;;;;;;19.35;10.07;;;13.60;99.90;;;;;;4972766;28;20046;-84
2022/10/30 05:01:15;;;;;;;21.55;10.23;;;13.60;99.90;;;;;;4994084;28;20195;-84
2022/10/30 05:03:41;;;;;;;22.08;10.07;;;13.50;99.90;;;;;;4977389;28;20510;-84
2022/10/30 05:06:20;;;;;;;26.38;10.70;;;13.50;99.90;;;;;;4974728;28;20125;-85
2022/10/30 05:08:46;;;;;;;22.67;10.02;;;13.50;99.90;;;;;;4990824;28;20049;-86
2022/10/30 05:11:12;;;;;;;18.95;10.57;;;13.50;99.90;;;;;;4990693;28;20402;-85
2022/10/30 05:13:38;;;;;;;18.63;9.95;;;13.50;99.90;;;;;;4980544;28;20046;-85
2022/10/30 05:16:04;;;;;;;19.50;9.68;;;13.50;99.90;;;;;;4987668;28;20030;-85
2022/10/30 05:18:29;;;;;;;25.90;10.35;;;13.40;99.90;;;;;;4999934;28;20049;-85
2022/10/30 05:20:55;;;;;;;20.75;9.73;;;13.40;99.90;;;;;;4976678;28;20064;-86
2022/10/30 05:23:21;;;;;;;18.98;9.70;;;13.30;99.90;;;;;;4995767;28;20073;-85
2022/10/30 05:25:46;;;;;;;20.92;10.45;;;13.30;99.90;;;;;;4992184;28;20050;-85
2022/10/30 05:28:12;;;;;;;20.10;9.43;;;13.30;99.90;;;;;;4973941;28;20041;-85
2022/10/30 05:30:38;;;;;;;18.45;10.13;;;13.30;99.90;;;;;;4960548;28;20034;-85
2022/10/30 05:33:06;;;;;;;19.40;10.38;;;13.30;99.90;;;;;;5007200;28;20069;-85
2022/10/30 05:35:33;;;;;;;20.13;10.13;;;13.30;99.90;;;;;;4990765;28;20038;-85
2022/10/30 05:38:00;;;;;;;20.08;9.65;;;13.20;99.90;;;;;;4991191;28;20052;-85
2022/10/30 05:40:26;;;;;;;24.45;10.88;;;13.20;99.90;;;;;;4974108;28;20061;-85
2022/10/30 05:42:52;;;;;;;21.60;10.25;;;13.20;99.90;;;;;;5005910;28;20050;-85
2022/10/30 05:45:18;;;;;;;22.75;9.82;;;13.20;99.90;;;;;;4970673;28;20129;-85
2022/10/30 05:47:53;;;;;;;21.90;10.90;;;13.20;99.90;;;;;;4964805;28;20041;-85
2022/10/30 05:50:19;;;;;;;21.63;10.18;;;13.20;99.90;;;;;;4990113;28;20104;-85
2022/10/30 05:52:45;;;;;;;18.60;10.63;;;13.20;99.90;;;;;;4975433;28;20042;-85
2022/10/30 05:55:10;;;;;;;23.08;11.15;;;13.10;99.90;;;;;;4956681;28;20050;-85
2022/10/30 05:57:36;;;;;;;22.02;10.57;;;13.10;99.90;;;;;;4962075;28;20403;-84
2022/10/30 06:00:02;;;;;;;21.38;10.07;;;13.10;99.90;;;;;;4972853;28;20149;-85
2022/10/30 06:02:28;;;;;;;21.65;10.55;;;13.10;99.90;;;;;;5007391;28;20562;-85
2022/10/30 06:04:54;;;;;;;23.73;10.27;;;13.10;99.90;;;;;;4984139;28;20126;-84
2022/10/30 06:07:19;;;;;;;22.33;10.65;;;13.00;99.90;;;;;;4993887;28;20053;-85
2022/10/30 06:09:45;;;;;;;21.58;10.40;;;13.00;99.90;;;;;;4973184;28;20042;-85
2022/10/30 06:12:11;;;;;;;22.65;10.40;;;13.00;99.90;;;;;;4994227;28;20479;-85
2022/10/30 06:14:36;;;;;;;21.25;10.65;;;13.00;99.90;;;;;;4995171;28;20291;-85
2022/10/30 06:17:02;;;;;;;21.45;10.80;;;13.00;99.90;;;;;;4979252;28;20037;-85
2022/10/30 06:19:27;;;;;;;24.88;10.73;;;13.00;99.90;;;;;;4998363;28;20037;-85
2022/10/30 06:21:53;;;;;;;24.58;10.35;;;13.00;99.90;;;;;;4974595;28;20038;-85
2022/10/30 06:24:19;;;;;;;21.40;10.70;;;13.00;99.90;;;;;;4986905;28;20180;-85
2022/10/30 06:26:45;;;;;;;20.30;10.60;;;12.90;99.90;;;;;;4973218;28;20511;-84
2022/10/30 06:29:11;;;;;;;21.88;11.18;;;13.10;99.90;;;;;;4965940;28;20038;-85
2022/10/30 06:31:36;;;;;;;25.42;11.30;;;12.90;99.90;;;;;;4962940;28;20060;-85
2022/10/30 06:34:02;;;;;;;22.45;10.93;;;12.90;99.90;;;;;;4977064;28;20100;-85
2022/10/30 06:36:28;;;;;;;25.08;11.68;;;13.00;99.90;;;;;;4974754;28;20038;-85
2022/10/30 06:38:54;;;;;;;22.23;11.63;;;12.90;99.90;;;;;;4994413;28;20412;-84
2022/10/30 06:41:19;;;;;;;24.52;10.75;;;12.90;99.90;;;;;;4994265;28;20057;-85
2022/10/30 06:43:45;;;;;;;23.00;11.40;;;12.90;99.90;;;;;;4970811;28;20049;-85
2022/10/30 06:46:11;;;;;;;22.60;11.13;;;12.90;99.90;;;;;;4991754;28;20117;-84
2022/10/30 06:48:36;;;;;;;21.73;11.07;;;12.90;99.90;;;;;;4976833;28;20187;-85
2022/10/30 06:51:02;;;;;;;22.85;10.70;;;12.90;99.90;;;;;;4977953;28;20099;-85
2022/10/30 06:53:28;;;;;;;22.65;10.88;;;12.90;99.90;;;;;;4993733;28;20034;-84
2022/10/30 06:56:01;;;;;;;22.67;10.55;;;12.90;99.90;;;;;;4989497;28;20073;-85
2022/10/30 06:58:28;;;;;;;19.77;10.43;;;12.90;99.90;;;;;;4998943;28;20045;-85
2022/10/30 07:00:54;;;;;;;18.48;10.30;;;12.90;99.90;;;;;;4981831;28;20568;-85
2022/10/30 07:03:21;;;;;;;21.25;10.77;;;12.90;99.90;;;;;;5008696;28;20046;-84
2022/10/30 07:05:47;;;;;;;22.25;10.52;;;12.90;99.90;;;;;;4981139;28;20096;-85
2022/10/30 07:08:12;;;;;;;23.42;10.93;;;12.90;99.90;;;;;;4991541;28;20042;-85
2022/10/30 07:10:41;;;;;;;23.70;11.35;;;12.90;99.90;;;;;;4972184;28;20034;-85
2022/10/30 07:13:11;;;;;;;20.60;10.90;;;12.90;99.90;;;;;;4972607;28;20046;-85
2022/10/30 07:15:38;;;;;;;19.88;11.18;;;12.90;99.90;;;;;;4968877;28;20088;-85
2022/10/30 07:18:04;;;;;;;22.67;11.35;;;13.00;99.90;;;;;;4972270;28;20133;-85
2022/10/30 07:20:33;;;;;;;26.00;10.60;;;13.00;99.90;;;;;;4974080;28;20117;-85
2022/10/30 07:22:59;;;;;;;23.30;10.90;;;13.00;99.90;;;;;;4991524;28;20037;-85
2022/10/30 07:25:25;;;;;;;22.02;10.85;;;13.10;99.90;;;;;;4971377;28;20045;-85
2022/10/30 07:27:51;;;;;;;21.45;11.00;;;13.10;99.90;;;;;;5006615;28;20045;-85
2022/10/30 07:30:20;;;;;;;19.95;10.77;;;13.10;99.90;;;;;;4984314;28;20066;-85
2022/10/30 07:32:54;;;;;;;21.45;10.82;;;13.20;99.90;;;;;;4988245;28;20117;-84
2022/10/30 07:35:20;;;;;;;24.00;11.52;;;13.20;99.90;;;;;;4993895;28;20034;-85
2022/10/30 07:37:46;;;;;;;21.63;11.35;;;13.20;99.90;;;;;;4977871;28;20033;-85
2022/10/30 07:40:11;;;;;;;25.20;11.40;;;13.20;99.90;;;;;;4979392;28;20046;-84
2022/10/30 07:42:37;;;;;;;20.65;11.02;;;13.30;99.90;;;;;;4976368;28;20042;-84
2022/10/30 07:45:03;;;;;;;20.50;10.70;;;13.40;99.90;;;;;;4992970;28;20049;-84
2022/10/30 07:47:29;;;;;;;22.38;10.57;;;13.40;99.90;;;;;;4992945;28;20034;-85
2022/10/30 07:49:54;;;;;;;20.38;11.32;;;13.50;99.90;;;;;;4992620;28;20133;-85
2022/10/30 07:52:20;;;;;;;21.10;11.15;;;13.50;99.90;;;;;;4992414;28;20069;-85
2022/10/30 07:54:46;;;;;;;24.13;11.90;;;13.60;99.90;;;;;;4985513;28;20037;-85
2022/10/30 07:57:11;;;;;;;20.95;11.00;;;13.60;99.90;;;;;;4981578;28;20481;-85
2022/10/30 07:59:37;;;;;;;19.85;11.57;;;13.70;99.90;;;;;;4986879;28;20107;-85
2022/10/30 08:02:07;;;;;;;22.33;11.40;;;13.80;99.90;;;;;;4976161;28;20038;-84
2022/10/30 08:04:32;;;;;;;23.75;11.52;;;13.80;99.90;;;;;;5011175;28;20046;-84
2022/10/30 08:06:58;;;;;;;21.67;11.00;;;13.90;99.90;;;;;;4991524;28;20041;-84
2022/10/30 08:09:24;;;;;;;21.25;11.27;;;13.90;99.90;;;;;;4991684;28;20144;-85
2022/10/30 08:11:53;;;;;;;24.65;11.18;;;14.00;99.90;;;;;;4974921;28;20045;-84
2022/10/30 08:14:19;;;;;;;22.65;10.68;;;14.00;99.90;;;;;;4988149;28;20080;-85
2022/10/30 08:16:45;;;;;;;21.02;11.05;;;14.10;99.90;;;;;;4973907;28;20133;-85
2022/10/30 08:19:11;;;;;;;21.90;10.63;;;14.20;99.90;;;;;;4976772;28;20118;-86
2022/10/30 08:21:36;;;;;;;21.80;10.68;;;14.20;99.90;;;;;;4983673;28;20202;-85
2022/10/30 08:24:02;;;;;;;22.25;10.80;;;14.30;99.90;;;;;;4987524;28;20522;-85
2022/10/30 08:26:28;;;;;;;20.45;11.00;;;14.40;99.90;;;;;;4980783;28;20034;-85
2022/10/30 08:28:54;;;;;;;21.77;10.70;;;14.50;99.90;;;;;;4977608;28;20034;-85
2022/10/30 08:31:19;;;;;;;23.75;10.77;;;14.50;99.90;;;;;;5002247;28;20403;-85
2022/10/30 08:33:45;;;;;;;21.30;10.82;;;14.50;99.90;;;;;;4981928;28;20042;-85
2022/10/30 08:36:11;;;;;;;18.60;10.73;;;14.60;99.90;;;;;;4985822;28;20038;-85
2022/10/30 08:38:36;;;;;;;21.00;11.43;;;14.70;99.90;;;;;;4962692;28;20049;-85
2022/10/30 08:41:02;;;;;;;20.67;10.70;;;14.70;99.90;;;;;;4989074;28;20055;-85
2022/10/30 08:43:28;;;;;;;23.33;11.02;;;14.80;99.90;;;;;;4994341;28;20045;-85
2022/10/30 08:45:57;;;;;;;21.70;11.07;;;14.90;99.90;;;;;;4973781;28;20045;-85
2022/10/30 08:48:22;;;;;;;19.98;11.07;;;14.90;99.90;;;;;;5007357;28;20475;-85
2022/10/30 08:50:48;;;;;;;22.85;10.65;;;14.90;99.90;;;;;;4972938;28;20046;-85
2022/10/30 08:53:14;;;;;;;19.67;10.35;;;15.00;99.90;;;;;;4970657;28;20499;-85
2022/10/30 08:55:41;;;;;;;22.60;11.00;;;15.10;99.90;;;;;;4998609;28;20525;-85
2022/10/30 08:58:07;;;;;;;21.15;11.25;;;15.20;99.90;;;;;;4991761;28;20124;-86
2022/10/30 09:00:33;;;;;;;19.10;11.27;;;15.20;99.90;;;;;;4980573;28;20117;-85
2022/10/30 09:02:58;;;;;;;20.42;11.13;;;15.20;99.90;;;;;;5002818;28;20076;-85
2022/10/30 09:05:24;;;;;;;23.55;11.20;;;15.30;99.90;;;;;;4975900;28;20042;-85
2022/10/30 09:07:59;;;;;;;20.73;11.07;;;15.40;99.90;;;;;;4999101;28;20044;-85
2022/10/30 09:10:26;;;;;;;21.88;10.82;;;15.40;99.90;;;;;;4988537;28;20042;-85
2022/10/30 09:13:00;;;;;;;22.88;10.40;;;15.50;99.90;;;;;;5007406;28;20045;-85
2022/10/30 09:15:26;;;;;;;26.60;11.60;;;15.60;99.90;;;;;;4989761;28;20460;-85
2022/10/30 09:18:01;;;;;;;21.40;10.82;;;15.70;99.90;;;;;;4993360;28;20391;-85
2022/10/30 09:20:27;;;;;;;22.00;10.60;;;15.80;99.90;;;;;;4990270;28;20092;-85
2022/10/30 09:22:53;;;;;;;22.08;10.50;;;15.80;99.90;;;;;;4990850;28;20515;-85
2022/10/30 09:25:19;;;;;;;20.60;10.40;;;15.90;99.90;;;;;;4990509;28;20100;-86
2022/10/30 09:27:45;;;;;;;23.15;11.23;;;15.90;99.90;;;;;;4991005;28;20046;-86
2022/10/30 09:30:12;;;;;;;17.85;10.32;;;16.00;99.90;;;;;;4970648;28;20032;-87
2022/10/30 09:32:38;;;;;;;21.23;10.18;;;16.10;99.90;;;;;;4962356;28;20040;-87
2022/10/30 09:35:05;;;;;;;25.17;11.07;;;16.20;99.90;;;;;;5000397;28;20045;-86
2022/10/30 09:37:38;;;;;;;20.77;10.25;;;16.20;99.90;;;;;;5002629;28;20545;-87
2022/10/30 09:40:05;;;;;;;20.42;9.95;;;16.30;99.90;;;;;;4970034;28;21384;-86
2022/10/30 09:42:35;;;;;;;20.45;9.73;;;16.40;99.90;;;;;;4985869;28;20050;-87
2022/10/30 09:45:45;;;;;;;25.67;9.80;;;16.40;99.90;;;;;;4987783;28;20042;-87
2022/10/30 09:48:36;;;;;;;20.00;9.95;;;16.50;99.90;;;;;;4979933;28;20531;-87
2022/10/30 09:51:01;;;;;;;17.67;8.90;;;16.60;99.90;;;;;;4992511;28;20642;-87
2022/10/30 09:53:33;;;;;;;18.92;9.10;;;16.60;99.90;;;;;;4997993;28;20274;-87
2022/10/30 09:56:10;;;;;;;18.52;9.70;;;16.70;99.90;;;;;;4991925;28;20045;-87
2022/10/30 09:58:57;;;;;;;23.17;10.43;;;16.80;99.90;;;;;;5009221;28;20046;-86
2022/10/30 10:01:53;;;;;;;22.50;9.82;;;16.80;99.90;;;;;;4987637;28;20042;-86
2022/10/30 10:04:38;;;;;;;20.90;9.15;;;16.90;99.90;;;;;;5005253;28;20244;-86
2022/10/30 10:07:16;;;;;;;19.02;9.30;;;17.00;99.90;;;;;;4994223;28;20123;-86
2022/10/30 10:09:43;;;;;;;18.83;9.60;;;17.10;99.90;;;;;;4989787;28;20131;-86
2022/10/30 10:12:12;;;;;;;20.85;9.25;;;17.00;99.90;;;;;;4990399;28;20395;-86
2022/10/30 10:14:43;;;;;;;20.05;8.82;;;17.00;99.90;;;;;;4992514;28;20044;-86
2022/10/30 10:17:13;;;;;;;20.13;9.40;;;17.10;99.90;;;;;;4988054;28;20060;-87
2022/10/30 10:19:48;;;;;;;22.17;9.25;;;17.10;99.90;;;;;;5009706;28;20530;-87
2022/10/30 10:22:20;;;;;;;20.25;9.73;;;17.10;99.90;;;;;;4994172;28;20041;-87
2022/10/30 10:24:47;;;;;;;19.20;9.20;;;17.10;99.90;;;;;;5006295;28;20184;-87
2022/10/30 10:27:24;;;;;;;20.20;9.07;;;17.20;99.90;;;;;;5009899;28;20502;-87
2022/10/30 10:30:14;;;;;;;19.00;8.82;;;17.20;99.90;;;;;;4984920;28;20045;-87
2022/10/30 10:32:48;;;;;;;17.17;8.23;;;18.30;99.90;;;;;;4991549;28;20509;-87
2022/10/30 10:35:32;;;;;;;18.38;7.70;;;17.40;99.90;;;;;;4988172;28;20034;-88
2022/10/30 10:38:23;;;;;;;17.25;8.05;;;17.50;99.90;;;;;;4992658;28;20034;-87
2022/10/30 10:41:11;;;;;;;18.85;8.05;;;17.60;99.90;;;;;;5006153;28;20056;-87
2022/10/30 10:44:21;;;;;;;20.08;8.43;;;17.70;99.90;;;;;;5003750;28;20042;-87
2022/10/30 10:47:02;;;;;;;21.52;9.00;;;17.70;99.90;;;;;;4991137;28;20046;-86
2022/10/30 10:50:09;;;;;;;17.73;8.48;;;17.70;99.90;;;;;;4985284;28;21414;-86
2022/10/30 10:52:54;;;;;;;17.05;8.55;;;17.80;99.90;;;;;;4987716;28;20556;-87
2022/10/30 10:55:25;;;;;;;17.05;8.20;;;17.90;99.90;;;;;;4993329;28;20049;-89
2022/10/30 10:57:52;;;;;;;18.52;7.78;;;18.00;99.90;;;;;;5014530;28;20099;-88
2022/10/30 11:00:22;;;;;;;16.45;8.77;;;18.10;99.90;;;;;;4975607;28;20141;-88
2022/10/30 11:02:51;;;;;;;17.85;8.73;;;18.10;99.90;;;;;;4981031;28;20052;-89
2022/10/30 11:05:40;;;;;;;17.58;8.35;;;18.10;99.90;;;;;;5005850;28;20053;-88
2022/10/30 11:08:11;;;;;;;14.52;8.13;;;18.10;99.90;;;;;;4979528;28;20046;-88
2022/10/30 11:10:36;;;;;;;18.00;8.02;;;18.20;99.90;;;;;;5004827;28;20408;-88
2022/10/30 11:13:02;;;;;;;20.67;8.20;;;18.30;99.90;;;;;;4988944;28;20030;-87
2022/10/30 11:15:56;;;;;;;17.25;9.45;;;18.40;99.90;;;;;;4971306;28;20121;-88
2022/10/30 11:18:22;;;;;;;18.25;8.55;;;18.60;99.90;;;;;;4985757;28;20041;-87
2022/10/30 11:21:07;;;;;;;17.90;8.27;;;18.70;99.90;;;;;;4981365;28;20100;-88
2022/10/30 11:23:44;;;;;;;18.23;7.93;;;18.90;99.90;;;;;;4985839;28;20406;-89
2022/10/30 11:26:24;;;;;;;17.08;7.18;;;19.00;99.90;;;;;;5005959;28;20049;-88
2022/10/30 11:28:55;;;;;;;22.80;8.38;;;19.00;99.90;;;;;;4989575;28;20399;-88
2022/10/30 11:31:39;;;;;;;16.48;7.28;;;19.10;99.90;;;;;;4985719;28;20045;-88
2022/10/30 11:34:33;;;;;;;21.73;7.32;;;19.30;99.90;;;;;;5005328;28;20100;-87
2022/10/30 11:36:59;;;;;;;17.75;7.10;;;19.30;99.90;;;;;;4982343;28;20068;-88
2022/10/30 11:39:59;;;;;;;19.23;7.53;;;19.30;99.90;;;;;;4968448;28;20069;-88
2022/10/30 11:42:25;;;;;;;14.88;7.40;;;19.30;99.90;;;;;;4989805;28;20045;-88
2022/10/30 11:44:51;;;;;;;19.90;7.88;;;19.30;99.90;;;;;;4968486;28;20034;-88
2022/10/30 11:47:34;;;;;;;16.85;7.53;;;19.30;99.90;;;;;;4985227;28;20046;-86
2022/10/30 11:50:04;;;;;;;16.10;6.75;;;19.40;99.90;;;;;;4991629;28;20073;-87
2022/10/30 11:52:37;;;;;;;17.77;6.70;;;19.40;99.90;;;;;;4989678;28;20128;-89
2022/10/30 11:55:15;;;;;;;17.60;6.45;;;19.50;99.90;;;;;;4989731;28;20574;-88
2022/10/30 11:57:48;;;;;;;17.38;6.85;;;19.40;99.90;;;;;;4991549;28;20048;-87
2022/10/30 12:00:26;;;;;;;17.08;6.13;;;19.30;99.90;;;;;;4987826;28;20044;-88
2022/10/30 12:02:54;;;;;;;14.68;6.10;;;19.30;99.90;;;;;;4981115;28;20041;-88
2022/10/30 12:05:26;;;;;;;20.58;6.40;;;19.20;99.90;;;;;;4988031;28;20050;-88
2022/10/30 12:08:07;;;;;;;14.98;6.28;;;19.20;99.90;;;;;;4993135;28;20065;-88
2022/10/30 12:10:45;;;;;;;14.52;5.70;;;19.20;99.90;;;;;;4992519;28;20042;-88
2022/10/30 12:13:16;;;;;;;15.63;6.18;;;19.20;99.90;;;;;;4991707;28;20541;-88
2022/10/30 12:15:44;;;;;;;18.10;6.28;;;19.10;99.90;;;;;;4992412;28;20100;-88
2022/10/30 12:18:26;;;;;;;14.70;6.53;;;19.10;99.90;;;;;;4992692;28;20077;-88
2022/10/30 12:20:54;;;;;;;13.50;6.03;;;19.20;99.90;;;;;;4998018;28;20046;-88
2022/10/30 12:23:24;;;;;;;14.27;6.38;;;19.20;99.90;;;;;;5014689;28;20046;-88
2022/10/30 12:26:16;;;;;;;14.43;5.70;;;19.30;99.90;;;;;;4991488;28;20117;-88
2022/10/30 12:28:52;;;;;;;16.70;5.47;;;19.40;99.90;;;;;;5009102;28;20064;-88
2022/10/30 12:31:23;;;;;;;16.42;6.05;;;19.40;99.90;;;;;;4999075;28;20469;-88
2022/10/30 12:34:18;;;;;;;16.40;6.20;;;19.40;99.90;;;;;;5002974;28;20037;-88
2022/10/30 12:36:50;;;;;;;14.60;6.20;;;19.30;99.90;;;;;;4983716;28;20084;-88
2022/10/30 12:39:36;;;;;;;18.50;6.50;;;19.30;99.90;;;;;;5008296;28;20049;-88
2022/10/30 12:42:14;;;;;;;15.63;6.60;;;19.30;99.90;;;;;;5011304;28;20046;-88
2022/10/30 12:44:44;;;;;;;16.45;6.22;;;19.30;99.90;;;;;;4999526;28;20399;-88
2022/10/30 12:47:32;;;;;;;14.90;5.88;;;19.30;99.90;;;;;;4991829;28;20042;-88